Aérodrome :
LOGIN :

S'inscrire | Disclaimer

   EN    FR    IT 

 










Légende :    VFR   VFR Marginal   IFR   IFR Intensif   IFR Très Intensif
Visi : 
Plafond : 
>= 8 km
>= 3000ft
5 à 8 km
1000 à 3000 ft
1500m à 5 km
500 à 1000 ft
800 à 1500m
200 à 500 ft
< 800m
< 200 ft
Symboles :   Orages  Brouillard  Fortes neiges  Fortes précipitations  Vent > 20 kt
SIGMETs :   Divers  Orages  Givrage  Turbulence  Onde Orograph.  Cendres Volcan.







- Altitude de l'aérodrome : 38 ft
- Code IATA : TRE
- Voir les cartes d'approche


EGPU - Tiree

DERNIER METAR :
  • 210720Z AUTO 16015KT 8000 NCD 10/09 Q1011

METARs EXPIRÉS :
  • 210650Z AUTO 16016KT 8000 NCD 10/09 Q1011
  • 210620Z AUTO 17015KT 8000 NCD 10/09 Q1010
  • 210550Z AUTO 17016KT 7000 NCD 10/09 Q1010
  • 210520Z AUTO 16016KT 7000 FEW021/// SCT041/// 10/09 Q1010
  • 210450Z AUTO 17018KT 9000 BKN020/// 10/09 Q1010

TAF TAF EGPU
Valide du 21 à 06h jusqu'au 21 à 15h UTC


210454Z 2106/2115 17014KT 9999 SCT010
TEMPO 2106/2115 18020G30KT
PROB40
TEMPO 2106/2112 7000 -RA BKN012
Pas de NOTAMs connus pour ce terrain.



MET'MAP, la Météo Aéronautique d'un coup d'oeil ! - Copyright ORBIFLY Décembre 2007 - Disclaimer

ORBIFLY MET'MAP TEAM :

Programmation & Développement : Alexandra Zaïnal
Conception & Développement : Baudouin d'Aumeries
Co-Programmation & Développement : Marc-Olivier Méhu
Soutien technique & logistique : Manuel Goepfert

Contact : metmap@orbifly.com




SOURCES & CREDITS :

   NOAA